sensor_id;sensor_type;location;lat;lon;timestamp;P1;durP1;ratioP1;P2;durP2;ratioP2
1024;SDS011;501;48.214;11.350;2023-08-17T00:05:12;9.57;;;8.07;;
1024;SDS011;501;48.214;11.350;2023-08-17T00:08:00;9.33;;;8.53;;
1024;SDS011;501;48.214;11.350;2023-08-17T00:11:08;10.33;;;9.10;;
1024;SDS011;501;48.214;11.350;2023-08-17T00:13:36;13.03;;;10.60;;
1024;SDS011;501;48.214;11.350;2023-08-17T00:16:20;9.53;;;8.73;;
1024;SDS011;501;48.214;11.350;2023-08-17T00:18:57;10.17;;;9.23;;
1024;SDS011;501;48.214;11.350;2023-08-17T00:21:44;9.90;;;8.90;;
1024;SDS011;501;48.214;11.350;2023-08-17T00:24:16;9.60;;;8.70;;
1024;SDS011;501;48.214;11.350;2023-08-17T00:27:14;9.63;;;8.70;;
1024;SDS011;501;48.214;11.350;2023-08-17T00:29:53;9.43;;;8.60;;
1024;SDS011;501;48.214;11.350;2023-08-17T00:32:32;10.17;;;9.17;;
1024;SDS011;501;48.214;11.350;2023-08-17T00:35:33;10.30;;;9.27;;
1024;SDS011;501;48.214;11.350;2023-08-17T00:38:17;9.50;;;8.60;;
1024;SDS011;501;48.214;11.350;2023-08-17T00:40:54;10.77;;;9.63;;
1024;SDS011;501;48.214;11.350;2023-08-17T00:46:21;10.63;;;9.63;;
1024;SDS011;501;48.214;11.350;2023-08-17T00:48:53;11.63;;;10.43;;
1024;SDS011;501;48.214;11.350;2023-08-17T00:51:21;10.17;;;9.20;;
1024;SDS011;501;48.214;11.350;2023-08-17T00:53:51;10.60;;;9.50;;
1024;SDS011;501;48.214;11.350;2023-08-17T00:56:28;10.90;;;9.90;;
1024;SDS011;501;48.214;11.350;2023-08-17T00:58:57;11.33;;;9.83;;
1024;SDS011;501;48.214;11.350;2023-08-17T01:01:23;10.23;;;9.27;;
1024;SDS011;501;48.214;11.350;2023-08-17T01:03:51;11.13;;;10.23;;
1024;SDS011;501;48.214;11.350;2023-08-17T01:06:53;10.43;;;9.43;;
1024;SDS011;501;48.214;11.350;2023-08-17T01:09:45;10.87;;;9.97;;
1024;SDS011;501;48.214;11.350;2023-08-17T01:14:09;10.33;;;9.43;;
1024;SDS011;501;48.214;11.350;2023-08-17T01:16:00;12.20;;;11.00;;
1024;SDS011;501;48.214;11.350;2023-08-17T01:19:18;12.73;;;10.20;;
1024;SDS011;501;48.214;11.350;2023-08-17T01:22:35;10.20;;;9.20;;
1024;SDS011;501;48.214;11.350;2023-08-17T01:28:21;10.57;;;9.60;;
1024;SDS011;501;48.214;11.350;2023-08-17T01:33:54;10.70;;;9.70;;
1024;SDS011;501;48.214;11.350;2023-08-17T01:36:40;10.80;;;9.73;;
1024;SDS011;501;48.214;11.350;2023-08-17T01:39:23;11.07;;;9.50;;
1024;SDS011;501;48.214;11.350;2023-08-17T01:48:51;10.57;;;9.67;;
1024;SDS011;501;48.214;11.350;2023-08-17T01:51:34;10.70;;;9.70;;
1024;SDS011;501;48.214;11.350;2023-08-17T01:54:07;12.33;;;11.03;;
1024;SDS011;501;48.214;11.350;2023-08-17T01:57:04;11.00;;;9.90;;
1024;SDS011;501;48.214;11.350;2023-08-17T01:59:57;11.37;;;10.27;;
1024;SDS011;501;48.214;11.350;2023-08-17T02:03:09;11.90;;;10.60;;
1024;SDS011;501;48.214;11.350;2023-08-17T02:09:08;11.90;;;10.80;;
1024;SDS011;501;48.214;11.350;2023-08-17T02:15:13;11.07;;;9.90;;
1024;SDS011;501;48.214;11.350;2023-08-17T02:20:52;10.43;;;9.53;;
1024;SDS011;501;48.214;11.350;2023-08-17T02:30:38;12.30;;;11.10;;
1024;SDS011;501;48.214;11.350;2023-08-17T02:33:39;11.97;;;10.73;;
1024;SDS011;501;48.214;11.350;2023-08-17T02:36:34;11.37;;;10.30;;
1024;SDS011;501;48.214;11.350;2023-08-17T02:43:06;10.83;;;9.37;;
1024;SDS011;501;48.214;11.350;2023-08-17T02:45:51;11.47;;;10.37;;
1024;SDS011;501;48.214;11.350;2023-08-17T02:49:00;12.00;;;10.73;;
1024;SDS011;501;48.214;11.350;2023-08-17T02:51:30;13.00;;;11.60;;
1024;SDS011;501;48.214;11.350;2023-08-17T02:57:16;11.13;;;10.13;;
1024;SDS011;501;48.214;11.350;2023-08-17T03:00:05;12.20;;;11.00;;
1024;SDS011;501;48.214;11.350;2023-08-17T03:03:00;11.73;;;10.60;;
1024;SDS011;501;48.214;11.350;2023-08-17T03:05:55;12.80;;;10.10;;
1024;SDS011;501;48.214;11.350;2023-08-17T03:08:44;11.70;;;10.60;;
1024;SDS011;501;48.214;11.350;2023-08-17T03:13:58;13.40;;;12.03;;
1024;SDS011;501;48.214;11.350;2023-08-17T03:16:30;17.30;;;10.83;;
1024;SDS011;501;48.214;11.350;2023-08-17T03:19:20;11.57;;;10.47;;
1024;SDS011;501;48.214;11.350;2023-08-17T03:22:15;11.30;;;10.30;;
1024;SDS011;501;48.214;11.350;2023-08-17T03:24:41;11.60;;;10.53;;
1024;SDS011;501;48.214;11.350;2023-08-17T03:27:07;12.07;;;10.97;;
1024;SDS011;501;48.214;11.350;2023-08-17T03:29:33;11.03;;;10.13;;
1024;SDS011;501;48.214;11.350;2023-08-17T03:31:59;11.50;;;10.40;;
1024;SDS011;501;48.214;11.350;2023-08-17T03:34:25;11.07;;;9.97;;
1024;SDS011;501;48.214;11.350;2023-08-17T03:36:51;10.90;;;9.93;;
1024;SDS011;501;48.214;11.350;2023-08-17T03:39:17;9.63;;;8.73;;
1024;SDS011;501;48.214;11.350;2023-08-17T03:41:43;10.37;;;9.37;;
1024;SDS011;501;48.214;11.350;2023-08-17T03:44:08;10.73;;;9.50;;
1024;SDS011;501;48.214;11.350;2023-08-17T03:46:34;10.13;;;9.20;;
1024;SDS011;501;48.214;11.350;2023-08-17T03:49:00;13.70;;;9.70;;
1024;SDS011;501;48.214;11.350;2023-08-17T03:51:25;10.30;;;9.30;;
1024;SDS011;501;48.214;11.350;2023-08-17T03:53:51;11.30;;;9.97;;
1024;SDS011;501;48.214;11.350;2023-08-17T03:56:17;16.13;;;9.70;;
1024;SDS011;501;48.214;11.350;2023-08-17T03:58:43;11.27;;;9.30;;
1024;SDS011;501;48.214;11.350;2023-08-17T04:01:08;11.80;;;9.80;;
1024;SDS011;501;48.214;11.350;2023-08-17T04:03:36;11.57;;;10.47;;
1024;SDS011;501;48.214;11.350;2023-08-17T04:06:07;10.53;;;9.40;;
1024;SDS011;501;48.214;11.350;2023-08-17T04:08:35;13.50;;;9.00;;
1024;SDS011;501;48.214;11.350;2023-08-17T04:11:02;11.50;;;10.50;;
1024;SDS011;501;48.214;11.350;2023-08-17T04:13:28;11.00;;;9.90;;
1024;SDS011;501;48.214;11.350;2023-08-17T04:15:54;9.83;;;8.93;;
1024;SDS011;501;48.214;11.350;2023-08-17T04:18:19;11.00;;;9.90;;
1024;SDS011;501;48.214;11.350;2023-08-17T04:20:45;9.23;;;8.33;;
1024;SDS011;501;48.214;11.350;2023-08-17T04:23:10;9.33;;;8.43;;
1024;SDS011;501;48.214;11.350;2023-08-17T04:25:36;14.40;;;9.57;;
1024;SDS011;501;48.214;11.350;2023-08-17T04:28:02;11.67;;;9.50;;
1024;SDS011;501;48.214;11.350;2023-08-17T04:30:27;12.30;;;8.80;;
1024;SDS011;501;48.214;11.350;2023-08-17T04:32:53;10.73;;;9.63;;
1024;SDS011;501;48.214;11.350;2023-08-17T04:35:19;10.83;;;9.73;;
1024;SDS011;501;48.214;11.350;2023-08-17T04:37:45;10.17;;;9.03;;
1024;SDS011;501;48.214;11.350;2023-08-17T04:40:12;11.20;;;10.00;;
1024;SDS011;501;48.214;11.350;2023-08-17T04:42:38;10.83;;;9.70;;
1024;SDS011;501;48.214;11.350;2023-08-17T04:45:04;14.73;;;11.43;;
1024;SDS011;501;48.214;11.350;2023-08-17T04:47:30;13.37;;;12.00;;
1024;SDS011;501;48.214;11.350;2023-08-17T04:49:56;12.90;;;11.57;;
1024;SDS011;501;48.214;11.350;2023-08-17T04:52:21;11.97;;;10.97;;
1024;SDS011;501;48.214;11.350;2023-08-17T04:54:47;11.57;;;10.47;;
1024;SDS011;501;48.214;11.350;2023-08-17T04:57:13;12.53;;;11.27;;
1024;SDS011;501;48.214;11.350;2023-08-17T04:59:38;12.93;;;11.70;;
1024;SDS011;501;48.214;11.350;2023-08-17T05:02:05;12.40;;;11.30;;
1024;SDS011;501;48.214;11.350;2023-08-17T05:04:30;13.90;;;11.83;;
1024;SDS011;501;48.214;11.350;2023-08-17T05:06:56;14.13;;;12.73;;
1024;SDS011;501;48.214;11.350;2023-08-17T05:09:22;13.47;;;12.27;;
1024;SDS011;501;48.214;11.350;2023-08-17T05:11:47;14.33;;;12.93;;
1024;SDS011;501;48.214;11.350;2023-08-17T05:14:13;12.83;;;11.63;;
1024;SDS011;501;48.214;11.350;2023-08-17T05:16:38;13.13;;;11.43;;
1024;SDS011;501;48.214;11.350;2023-08-17T05:19:04;12.63;;;11.33;;
1024;SDS011;501;48.214;11.350;2023-08-17T05:21:30;13.00;;;10.97;;
1024;SDS011;501;48.214;11.350;2023-08-17T05:23:55;11.77;;;10.63;;
1024;SDS011;501;48.214;11.350;2023-08-17T05:26:21;11.33;;;10.23;;
1024;SDS011;501;48.214;11.350;2023-08-17T05:28:47;11.33;;;10.20;;
1024;SDS011;501;48.214;11.350;2023-08-17T05:31:13;11.40;;;10.40;;
1024;SDS011;501;48.214;11.350;2023-08-17T05:33:39;11.87;;;10.67;;
1024;SDS011;501;48.214;11.350;2023-08-17T05:36:06;13.30;;;11.03;;
1024;SDS011;501;48.214;11.350;2023-08-17T05:38:32;11.87;;;10.67;;
1024;SDS011;501;48.214;11.350;2023-08-17T05:40:58;12.63;;;11.43;;
1024;SDS011;501;48.214;11.350;2023-08-17T05:43:24;12.17;;;11.03;;
1024;SDS011;501;48.214;11.350;2023-08-17T05:45:50;11.33;;;10.23;;
1024;SDS011;501;48.214;11.350;2023-08-17T05:48:17;11.67;;;10.57;;
1024;SDS011;501;48.214;11.350;2023-08-17T05:50:46;13.60;;;11.70;;
1024;SDS011;501;48.214;11.350;2023-08-17T05:53:12;16.60;;;11.50;;
1024;SDS011;501;48.214;11.350;2023-08-17T05:55:37;11.97;;;10.73;;
1024;SDS011;501;48.214;11.350;2023-08-17T05:58:03;11.80;;;10.37;;
1024;SDS011;501;48.214;11.350;2023-08-17T06:00:29;12.33;;;11.03;;
1024;SDS011;501;48.214;11.350;2023-08-17T06:02:54;11.53;;;10.37;;
1024;SDS011;501;48.214;11.350;2023-08-17T06:05:26;11.17;;;10.13;;
1024;SDS011;501;48.214;11.350;2023-08-17T06:07:52;11.93;;;10.80;;
1024;SDS011;501;48.214;11.350;2023-08-17T06:10:18;10.00;;;9.07;;
1024;SDS011;501;48.214;11.350;2023-08-17T06:12:44;12.83;;;11.53;;
1024;SDS011;501;48.214;11.350;2023-08-17T06:15:09;11.40;;;10.30;;
1024;SDS011;501;48.214;11.350;2023-08-17T06:17:35;11.43;;;10.33;;
1024;SDS011;501;48.214;11.350;2023-08-17T06:20:00;11.13;;;10.03;;
1024;SDS011;501;48.214;11.350;2023-08-17T06:22:28;10.43;;;9.23;;
1024;SDS011;501;48.214;11.350;2023-08-17T06:24:53;10.87;;;9.90;;
1024;SDS011;501;48.214;11.350;2023-08-17T06:27:19;11.90;;;10.30;;
1024;SDS011;501;48.214;11.350;2023-08-17T06:29:44;11.10;;;9.90;;
1024;SDS011;501;48.214;11.350;2023-08-17T06:32:10;10.07;;;9.10;;
1024;SDS011;501;48.214;11.350;2023-08-17T06:34:36;12.23;;;11.13;;
1024;SDS011;501;48.214;11.350;2023-08-17T06:37:02;14.30;;;11.30;;
1024;SDS011;501;48.214;11.350;2023-08-17T06:39:28;11.83;;;10.83;;
1024;SDS011;501;48.214;11.350;2023-08-17T06:41:54;10.50;;;9.53;;
1024;SDS011;501;48.214;11.350;2023-08-17T06:44:20;15.57;;;9.63;;
1024;SDS011;501;48.214;11.350;2023-08-17T06:46:46;10.40;;;9.53;;
1024;SDS011;501;48.214;11.350;2023-08-17T06:49:12;10.77;;;9.77;;
1024;SDS011;501;48.214;11.350;2023-08-17T06:51:38;9.70;;;8.83;;
1024;SDS011;501;48.214;11.350;2023-08-17T06:54:04;9.80;;;9.00;;
1024;SDS011;501;48.214;11.350;2023-08-17T06:56:30;10.47;;;9.57;;
1024;SDS011;501;48.214;11.350;2023-08-17T06:58:56;11.10;;;9.87;;
1024;SDS011;501;48.214;11.350;2023-08-17T07:01:21;10.77;;;9.70;;
1024;SDS011;501;48.214;11.350;2023-08-17T07:03:47;11.20;;;10.10;;
1024;SDS011;501;48.214;11.350;2023-08-17T07:06:13;12.40;;;9.90;;
1024;SDS011;501;48.214;11.350;2023-08-17T07:08:38;11.37;;;10.40;;
1024;SDS011;501;48.214;11.350;2023-08-17T07:11:04;10.97;;;9.97;;
1024;SDS011;501;48.214;11.350;2023-08-17T07:13:31;11.43;;;10.43;;
1024;SDS011;501;48.214;11.350;2023-08-17T07:15:56;11.20;;;10.30;;
1024;SDS011;501;48.214;11.350;2023-08-17T07:18:22;11.27;;;10.27;;
1024;SDS011;501;48.214;11.350;2023-08-17T07:20:48;12.50;;;11.20;;
1024;SDS011;501;48.214;11.350;2023-08-17T07:23:14;11.07;;;10.07;;
1024;SDS011;501;48.214;11.350;2023-08-17T07:25:40;11.07;;;10.07;;
1024;SDS011;501;48.214;11.350;2023-08-17T07:28:06;12.13;;;10.47;;
1024;SDS011;501;48.214;11.350;2023-08-17T07:30:31;12.60;;;10.20;;
1024;SDS011;501;48.214;11.350;2023-08-17T07:32:57;10.63;;;9.63;;
1024;SDS011;501;48.214;11.350;2023-08-17T07:35:22;10.40;;;9.40;;
1024;SDS011;501;48.214;11.350;2023-08-17T07:37:48;10.27;;;9.37;;
1024;SDS011;501;48.214;11.350;2023-08-17T07:40:14;10.43;;;9.40;;
1024;SDS011;501;48.214;11.350;2023-08-17T07:42:39;10.63;;;9.70;;
1024;SDS011;501;48.214;11.350;2023-08-17T07:45:05;12.03;;;10.90;;
1024;SDS011;501;48.214;11.350;2023-08-17T07:47:35;11.17;;;10.20;;
1024;SDS011;501;48.214;11.350;2023-08-17T07:50:01;10.77;;;9.67;;
1024;SDS011;501;48.214;11.350;2023-08-17T07:52:28;11.67;;;10.67;;
1024;SDS011;501;48.214;11.350;2023-08-17T07:54:54;11.50;;;10.40;;
1024;SDS011;501;48.214;11.350;2023-08-17T07:57:20;10.67;;;9.67;;
1024;SDS011;501;48.214;11.350;2023-08-17T07:59:45;10.80;;;9.90;;
1024;SDS011;501;48.214;11.350;2023-08-17T08:02:11;10.40;;;9.40;;
1024;SDS011;501;48.214;11.350;2023-08-17T08:04:36;10.47;;;9.33;;
1024;SDS011;501;48.214;11.350;2023-08-17T08:07:02;11.23;;;9.73;;
1024;SDS011;501;48.214;11.350;2023-08-17T08:09:28;10.00;;;9.17;;
1024;SDS011;501;48.214;11.350;2023-08-17T08:11:53;10.03;;;9.13;;
1024;SDS011;501;48.214;11.350;2023-08-17T08:14:19;10.30;;;9.40;;
1024;SDS011;501;48.214;11.350;2023-08-17T08:16:44;10.57;;;9.67;;
1024;SDS011;501;48.214;11.350;2023-08-17T08:19:10;9.40;;;8.60;;
1024;SDS011;501;48.214;11.350;2023-08-17T08:21:36;11.37;;;10.27;;
1024;SDS011;501;48.214;11.350;2023-08-17T08:24:01;10.73;;;9.73;;
1024;SDS011;501;48.214;11.350;2023-08-17T08:26:27;11.57;;;9.67;;
1024;SDS011;501;48.214;11.350;2023-08-17T08:28:52;11.10;;;9.83;;
1024;SDS011;501;48.214;11.350;2023-08-17T08:31:18;10.27;;;9.30;;
1024;SDS011;501;48.214;11.350;2023-08-17T08:33:44;10.70;;;9.70;;
1024;SDS011;501;48.214;11.350;2023-08-17T08:36:10;11.50;;;9.80;;
1024;SDS011;501;48.214;11.350;2023-08-17T08:38:36;10.20;;;9.40;;
1024;SDS011;501;48.214;11.350;2023-08-17T08:41:02;10.60;;;9.70;;
1024;SDS011;501;48.214;11.350;2023-08-17T08:43:28;10.50;;;9.60;;
1024;SDS011;501;48.214;11.350;2023-08-17T08:45:54;10.57;;;9.40;;
1024;SDS011;501;48.214;11.350;2023-08-17T08:48:20;9.20;;;8.43;;
1024;SDS011;501;48.214;11.350;2023-08-17T08:50:48;13.10;;;9.97;;
1024;SDS011;501;48.214;11.350;2023-08-17T08:53:17;9.80;;;9.00;;
1024;SDS011;501;48.214;11.350;2023-08-17T08:55:55;12.30;;;9.60;;
1024;SDS011;501;48.214;11.350;2023-08-17T08:58:23;9.90;;;9.10;;
1024;SDS011;501;48.214;11.350;2023-08-17T09:00:50;10.40;;;9.50;;
1024;SDS011;501;48.214;11.350;2023-08-17T09:03:17;10.10;;;9.30;;
1024;SDS011;501;48.214;11.350;2023-08-17T09:05:46;11.00;;;9.90;;
1024;SDS011;501;48.214;11.350;2023-08-17T09:08:13;11.13;;;9.23;;
1024;SDS011;501;48.214;11.350;2023-08-17T09:10:41;10.60;;;9.60;;
1024;SDS011;501;48.214;11.350;2023-08-17T09:13:07;16.70;;;9.30;;
1024;SDS011;501;48.214;11.350;2023-08-17T09:15:33;10.73;;;9.77;;
1024;SDS011;501;48.214;11.350;2023-08-17T09:17:59;10.47;;;9.57;;
1024;SDS011;501;48.214;11.350;2023-08-17T09:20:44;10.20;;;9.40;;
1024;SDS011;501;48.214;11.350;2023-08-17T09:25:40;11.07;;;10.10;;
1024;SDS011;501;48.214;11.350;2023-08-17T09:28:07;9.57;;;8.87;;
1024;SDS011;501;48.214;11.350;2023-08-17T09:30:59;10.07;;;9.17;;
1024;SDS011;501;48.214;11.350;2023-08-17T09:33:28;10.73;;;9.83;;
1024;SDS011;501;48.214;11.350;2023-08-17T09:35:56;10.60;;;9.70;;
1024;SDS011;501;48.214;11.350;2023-08-17T09:38:22;10.17;;;9.47;;
1024;SDS011;501;48.214;11.350;2023-08-17T09:40:48;9.43;;;8.63;;
1024;SDS011;501;48.214;11.350;2023-08-17T09:43:16;11.13;;;10.03;;
1024;SDS011;501;48.214;11.350;2023-08-17T09:45:46;9.80;;;9.00;;
1024;SDS011;501;48.214;11.350;2023-08-17T09:48:17;10.60;;;9.50;;
1024;SDS011;501;48.214;11.350;2023-08-17T09:50:50;10.30;;;9.40;;
1024;SDS011;501;48.214;11.350;2023-08-17T09:53:18;10.73;;;9.57;;
1024;SDS011;501;48.214;11.350;2023-08-17T09:55:44;16.23;;;10.50;;
1024;SDS011;501;48.214;11.350;2023-08-17T10:00:58;9.83;;;8.93;;
1024;SDS011;501;48.214;11.350;2023-08-17T10:03:34;9.80;;;8.73;;
1024;SDS011;501;48.214;11.350;2023-08-17T10:06:06;10.93;;;9.50;;
1024;SDS011;501;48.214;11.350;2023-08-17T10:08:55;10.13;;;9.30;;
1024;SDS011;501;48.214;11.350;2023-08-17T10:11:28;10.00;;;9.17;;
1024;SDS011;501;48.214;11.350;2023-08-17T10:14:00;10.00;;;9.10;;
1024;SDS011;501;48.214;11.350;2023-08-17T10:20:02;9.87;;;8.97;;
1024;SDS011;501;48.214;11.350;2023-08-17T10:22:46;9.47;;;8.57;;
1024;SDS011;501;48.214;11.350;2023-08-17T10:25:19;10.37;;;9.47;;
1024;SDS011;501;48.214;11.350;2023-08-17T10:28:20;9.90;;;9.10;;
1024;SDS011;501;48.214;11.350;2023-08-17T10:31:39;9.23;;;8.43;;
1024;SDS011;501;48.214;11.350;2023-08-17T10:34:16;9.03;;;8.23;;
1024;SDS011;501;48.214;11.350;2023-08-17T10:36:47;9.57;;;8.77;;
1024;SDS011;501;48.214;11.350;2023-08-17T10:39:33;16.10;;;8.27;;
1024;SDS011;501;48.214;11.350;2023-08-17T10:42:32;9.17;;;8.27;;
1024;SDS011;501;48.214;11.350;2023-08-17T10:45:31;10.23;;;8.60;;
1024;SDS011;501;48.214;11.350;2023-08-17T11:23:56;10.40;;;9.50;;
1024;SDS011;501;48.214;11.350;2023-08-17T11:30:43;9.93;;;9.13;;
1024;SDS011;501;48.214;11.350;2023-08-17T11:33:12;9.77;;;8.93;;
1024;SDS011;501;48.214;11.350;2023-08-17T11:39:32;11.40;;;10.50;;
1024;SDS011;501;48.214;11.350;2023-08-17T11:45:38;10.17;;;9.17;;
1024;SDS011;501;48.214;11.350;2023-08-17T11:48:35;9.30;;;8.47;;
1024;SDS011;501;48.214;11.350;2023-08-17T11:51:23;11.57;;;10.37;;
1024;SDS011;501;48.214;11.350;2023-08-17T11:54:11;10.73;;;9.50;;
1024;SDS011;501;48.214;11.350;2023-08-17T12:00:04;9.13;;;8.23;;
1024;SDS011;501;48.214;11.350;2023-08-17T12:31:08;7.90;;;7.30;;
1024;SDS011;501;48.214;11.350;2023-08-17T12:34:22;6.97;;;6.47;;
1024;SDS011;501;48.214;11.350;2023-08-17T12:37:06;6.80;;;6.20;;
1024;SDS011;501;48.214;11.350;2023-08-17T12:39:45;7.60;;;6.67;;
1024;SDS011;501;48.214;11.350;2023-08-17T12:42:19;6.90;;;6.20;;
1024;SDS011;501;48.214;11.350;2023-08-17T12:48:21;7.17;;;6.47;;
1024;SDS011;501;48.214;11.350;2023-08-17T12:51:20;6.30;;;5.80;;
1024;SDS011;501;48.214;11.350;2023-08-17T12:53:48;6.17;;;5.67;;
1024;SDS011;501;48.214;11.350;2023-08-17T12:56:25;6.83;;;6.23;;
1024;SDS011;501;48.214;11.350;2023-08-17T12:59:28;6.20;;;5.80;;
1024;SDS011;501;48.214;11.350;2023-08-17T13:02:00;6.10;;;5.70;;
1024;SDS011;501;48.214;11.350;2023-08-17T13:04:34;5.30;;;5.00;;
1024;SDS011;501;48.214;11.350;2023-08-17T13:07:22;5.87;;;5.37;;
1024;SDS011;501;48.214;11.350;2023-08-17T13:12:44;6.13;;;5.73;;
1024;SDS011;501;48.214;11.350;2023-08-17T13:15:24;5.73;;;5.23;;
1024;SDS011;501;48.214;11.350;2023-08-17T13:20:41;5.73;;;5.30;;
1024;SDS011;501;48.214;11.350;2023-08-17T13:23:10;5.70;;;5.20;;
1024;SDS011;501;48.214;11.350;2023-08-17T13:25:39;6.33;;;5.80;;
1024;SDS011;501;48.214;11.350;2023-08-17T13:28:15;5.37;;;4.97;;
1024;SDS011;501;48.214;11.350;2023-08-17T13:30:41;5.43;;;5.03;;
1024;SDS011;501;48.214;11.350;2023-08-17T13:33:28;5.50;;;5.00;;
1024;SDS011;501;48.214;11.350;2023-08-17T13:36:11;6.63;;;6.13;;
1024;SDS011;501;48.214;11.350;2023-08-17T13:38:39;5.80;;;5.40;;
1024;SDS011;501;48.214;11.350;2023-08-17T13:41:12;5.33;;;4.90;;
1024;SDS011;501;48.214;11.350;2023-08-17T13:43:51;5.63;;;5.03;;
1024;SDS011;501;48.214;11.350;2023-08-17T13:46:43;5.67;;;5.27;;
1024;SDS011;501;48.214;11.350;2023-08-17T13:49:17;5.73;;;5.10;;
1024;SDS011;501;48.214;11.350;2023-08-17T13:52:04;5.03;;;4.70;;
1024;SDS011;501;48.214;11.350;2023-08-17T13:54:56;6.00;;;5.60;;
1024;SDS011;501;48.214;11.350;2023-08-17T13:57:22;5.63;;;5.23;;
1024;SDS011;501;48.214;11.350;2023-08-17T13:59:48;6.33;;;5.73;;
1024;SDS011;501;48.214;11.350;2023-08-17T14:02:20;4.70;;;4.40;;
1024;SDS011;501;48.214;11.350;2023-08-17T14:04:46;5.17;;;4.80;;
1024;SDS011;501;48.214;11.350;2023-08-17T14:07:14;5.47;;;5.07;;
1024;SDS011;501;48.214;11.350;2023-08-17T14:09:40;5.90;;;5.40;;
1024;SDS011;501;48.214;11.350;2023-08-17T14:12:13;5.83;;;5.40;;
1024;SDS011;501;48.214;11.350;2023-08-17T14:14:42;6.70;;;6.23;;
1024;SDS011;501;48.214;11.350;2023-08-17T14:17:08;5.70;;;5.30;;
1024;SDS011;501;48.214;11.350;2023-08-17T14:19:36;5.60;;;5.10;;
1024;SDS011;501;48.214;11.350;2023-08-17T14:22:08;5.53;;;5.07;;
1024;SDS011;501;48.214;11.350;2023-08-17T14:24:36;6.53;;;6.00;;
1024;SDS011;501;48.214;11.350;2023-08-17T14:27:15;6.83;;;6.23;;
1024;SDS011;501;48.214;11.350;2023-08-17T14:29:47;6.00;;;5.50;;
1024;SDS011;501;48.214;11.350;2023-08-17T14:32:23;6.30;;;5.80;;
1024;SDS011;501;48.214;11.350;2023-08-17T14:35:02;6.07;;;5.57;;
1024;SDS011;501;48.214;11.350;2023-08-17T14:37:31;6.13;;;5.73;;
1024;SDS011;501;48.214;11.350;2023-08-17T14:39:59;6.10;;;5.60;;
1024;SDS011;501;48.214;11.350;2023-08-17T14:42:27;5.20;;;4.90;;
1024;SDS011;501;48.214;11.350;2023-08-17T14:45:03;7.37;;;6.00;;
1024;SDS011;501;48.214;11.350;2023-08-17T14:47:38;5.60;;;5.20;;
1024;SDS011;501;48.214;11.350;2023-08-17T14:50:04;6.30;;;5.80;;
1024;SDS011;501;48.214;11.350;2023-08-17T14:52:38;6.20;;;5.70;;
1024;SDS011;501;48.214;11.350;2023-08-17T14:55:07;9.27;;;5.90;;
1024;SDS011;501;48.214;11.350;2023-08-17T14:57:41;6.00;;;5.50;;
1024;SDS011;501;48.214;11.350;2023-08-17T15:00:20;5.40;;;5.10;;
1024;SDS011;501;48.214;11.350;2023-08-17T15:03:06;6.77;;;6.10;;
1024;SDS011;501;48.214;11.350;2023-08-17T15:05:32;6.63;;;6.13;;
1024;SDS011;501;48.214;11.350;2023-08-17T15:08:01;7.23;;;6.53;;
1024;SDS011;501;48.214;11.350;2023-08-17T15:10:27;7.17;;;6.57;;
1024;SDS011;501;48.214;11.350;2023-08-17T15:12:56;6.80;;;6.30;;
1024;SDS011;501;48.214;11.350;2023-08-17T15:15:32;6.30;;;5.77;;
1024;SDS011;501;48.214;11.350;2023-08-17T15:18:05;7.30;;;6.70;;
1024;SDS011;501;48.214;11.350;2023-08-17T15:20:33;6.20;;;5.80;;
1024;SDS011;501;48.214;11.350;2023-08-17T15:23:05;7.07;;;5.67;;
1024;SDS011;501;48.214;11.350;2023-08-17T15:25:31;6.67;;;6.17;;
1024;SDS011;501;48.214;11.350;2023-08-17T15:28:07;6.57;;;6.00;;
1024;SDS011;501;48.214;11.350;2023-08-17T15:30:36;6.93;;;6.43;;
1024;SDS011;501;48.214;11.350;2023-08-17T15:33:04;7.63;;;6.90;;
1024;SDS011;501;48.214;11.350;2023-08-17T15:35:37;6.87;;;6.37;;
1024;SDS011;501;48.214;11.350;2023-08-17T15:38:08;7.00;;;6.40;;
1024;SDS011;501;48.214;11.350;2023-08-17T15:40:39;7.03;;;6.43;;
1024;SDS011;501;48.214;11.350;2023-08-17T15:43:07;7.60;;;6.87;;
1024;SDS011;501;48.214;11.350;2023-08-17T15:45:33;8.40;;;7.70;;
1024;SDS011;501;48.214;11.350;2023-08-17T15:47:59;7.90;;;7.30;;
1024;SDS011;501;48.214;11.350;2023-08-17T15:50:28;8.00;;;7.40;;
1024;SDS011;501;48.214;11.350;2023-08-17T15:52:54;7.73;;;7.13;;
1024;SDS011;501;48.214;11.350;2023-08-17T15:55:20;8.37;;;6.20;;
1024;SDS011;501;48.214;11.350;2023-08-17T15:57:45;7.00;;;4.97;;
1024;SDS011;501;48.214;11.350;2023-08-17T16:00:11;7.80;;;4.87;;
1024;SDS011;501;48.214;11.350;2023-08-17T16:02:37;5.50;;;4.00;;
1024;SDS011;501;48.214;11.350;2023-08-17T16:05:03;7.77;;;4.00;;
1024;SDS011;501;48.214;11.350;2023-08-17T16:07:29;8.33;;;3.40;;
1024;SDS011;501;48.214;11.350;2023-08-17T16:09:54;4.63;;;4.10;;
1024;SDS011;501;48.214;11.350;2023-08-17T16:12:20;3.60;;;3.20;;
1024;SDS011;501;48.214;11.350;2023-08-17T16:14:45;8.83;;;3.93;;
1024;SDS011;501;48.214;11.350;2023-08-17T16:17:11;4.30;;;3.90;;
1024;SDS011;501;48.214;11.350;2023-08-17T16:19:36;3.60;;;3.20;;
1024;SDS011;501;48.214;11.350;2023-08-17T16:22:02;4.27;;;3.40;;
1024;SDS011;501;48.214;11.350;2023-08-17T16:24:28;5.60;;;3.20;;
1024;SDS011;501;48.214;11.350;2023-08-17T16:26:53;4.60;;;3.60;;
1024;SDS011;501;48.214;11.350;2023-08-17T16:29:19;4.33;;;3.60;;
1024;SDS011;501;48.214;11.350;2023-08-17T16:31:45;8.07;;;4.03;;
1024;SDS011;501;48.214;11.350;2023-08-17T16:34:24;9.07;;;4.90;;
1024;SDS011;501;48.214;11.350;2023-08-17T16:36:50;6.70;;;4.00;;
1024;SDS011;501;48.214;11.350;2023-08-17T16:39:16;6.50;;;4.43;;
1024;SDS011;501;48.214;11.350;2023-08-17T16:41:41;5.27;;;4.77;;
1024;SDS011;501;48.214;11.350;2023-08-17T16:44:07;5.73;;;4.40;;
1024;SDS011;501;48.214;11.350;2023-08-17T16:46:47;8.97;;;5.00;;
1024;SDS011;501;48.214;11.350;2023-08-17T16:49:15;5.47;;;4.97;;
1024;SDS011;501;48.214;11.350;2023-08-17T16:51:41;5.87;;;5.20;;
1024;SDS011;501;48.214;11.350;2023-08-17T16:54:07;6.13;;;4.43;;
1024;SDS011;501;48.214;11.350;2023-08-17T16:56:32;5.20;;;4.77;;
1024;SDS011;501;48.214;11.350;2023-08-17T16:58:58;4.77;;;3.93;;
1024;SDS011;501;48.214;11.350;2023-08-17T17:01:24;4.30;;;3.90;;
1024;SDS011;501;48.214;11.350;2023-08-17T17:03:49;5.93;;;4.47;;
1024;SDS011;501;48.214;11.350;2023-08-17T17:06:15;4.60;;;4.20;;
1024;SDS011;501;48.214;11.350;2023-08-17T17:08:43;5.43;;;4.33;;
1024;SDS011;501;48.214;11.350;2023-08-17T17:11:08;5.40;;;4.60;;
1024;SDS011;501;48.214;11.350;2023-08-17T17:13:34;4.97;;;4.50;;
1024;SDS011;501;48.214;11.350;2023-08-17T17:16:01;7.97;;;5.17;;
1024;SDS011;501;48.214;11.350;2023-08-17T17:18:27;4.70;;;4.20;;
1024;SDS011;501;48.214;11.350;2023-08-17T17:20:52;6.73;;;5.67;;
1024;SDS011;501;48.214;11.350;2023-08-17T17:23:18;5.20;;;4.20;;
1024;SDS011;501;48.214;11.350;2023-08-17T17:25:44;5.60;;;4.33;;
1024;SDS011;501;48.214;11.350;2023-08-17T17:28:09;6.53;;;4.90;;
1024;SDS011;501;48.214;11.350;2023-08-17T17:30:35;7.03;;;5.00;;
1024;SDS011;501;48.214;11.350;2023-08-17T17:33:00;6.40;;;4.80;;
1024;SDS011;501;48.214;11.350;2023-08-17T17:35:26;5.00;;;4.00;;
1024;SDS011;501;48.214;11.350;2023-08-17T17:37:52;8.77;;;4.40;;
1024;SDS011;501;48.214;11.350;2023-08-17T17:40:32;5.33;;;4.53;;
1024;SDS011;501;48.214;11.350;2023-08-17T17:42:57;7.13;;;4.20;;
1024;SDS011;501;48.214;11.350;2023-08-17T17:46:00;6.30;;;4.00;;
1024;SDS011;501;48.214;11.350;2023-08-17T17:48:55;7.67;;;4.27;;
1024;SDS011;501;48.214;11.350;2023-08-17T17:51:38;5.80;;;4.43;;
1024;SDS011;501;48.214;11.350;2023-08-17T17:54:20;8.53;;;4.80;;
1024;SDS011;501;48.214;11.350;2023-08-17T17:56:45;6.57;;;4.50;;